Time;durP1;ratioP1;P1;durP2;ratioP2;P2;SDS_P1;SDS_P2;PMS_P1;PMS_P2;Temp;Humidity;BMP_temperature;BMP_pressure;BME280_temperature;BME280_humidity;BME280_pressure;Samples;Min_cycle;Max_cycle;Signal;HPM_P1;HPM_P2
2021/06/05 00:00:30;;;;;;;5.27;2.67;;;;;;;15.96;nan;97035.06;3506476;40;20875;-70
2021/06/05 00:03:00;;;;;;;9.07;3.37;;;;;;;16.02;nan;97028.44;3507223;40;20776;-71
2021/06/05 00:05:32;;;;;;;4.30;2.87;;;;;;;16.16;nan;97022.00;3507403;40;20854;-70
2021/06/05 00:07:59;;;;;;;3.43;2.03;;;;;;;16.18;nan;97017.41;3508179;40;20553;-72
2021/06/05 00:10:31;;;;;;;4.90;2.10;;;;;;;16.15;nan;97017.66;3506688;40;20764;-70
2021/06/05 00:12:59;;;;;;;3.60;2.23;;;;;;;16.17;nan;97003.38;3506937;40;20912;-70
2021/06/05 00:15:31;;;;;;;7.83;2.50;;;;;;;15.95;nan;97009.63;3506578;40;20881;-70
2021/06/05 00:17:59;;;;;;;6.10;2.20;;;;;;;15.94;nan;97005.31;3506037;40;20530;-71
2021/06/05 00:20:30;;;;;;;5.37;2.87;;;;;;;15.81;nan;96999.38;3507621;40;20843;-70
2021/06/05 00:22:58;;;;;;;5.77;1.73;;;;;;;15.87;nan;96995.41;3506695;40;20779;-70
2021/06/05 00:25:28;;;;;;;6.50;2.43;;;;;;;16.05;nan;96985.06;3506566;40;21050;-72
2021/06/05 00:27:55;;;;;;;5.77;2.30;;;;;;;16.03;nan;96982.56;3507482;40;20840;-69
2021/06/05 00:30:24;;;;;;;5.20;2.37;;;;;;;16.00;nan;96978.38;3506769;40;20835;-72
2021/06/05 00:32:52;;;;;;;6.87;2.50;;;;;;;15.96;nan;96968.22;3506963;40;20787;-72
2021/06/05 00:35:20;;;;;;;4.23;2.93;;;;;;;16.00;nan;96986.31;3504696;40;20489;-71
2021/06/05 00:37:49;;;;;;;6.50;3.53;;;;;;;15.88;nan;96984.72;3506849;40;20432;-72
2021/06/05 00:40:19;;;;;;;4.97;2.20;;;;;;;15.67;nan;96981.19;3505587;40;20884;-69
2021/06/05 00:42:47;;;;;;;3.00;1.87;;;;;;;15.62;nan;96987.69;3505418;40;20919;-70
2021/06/05 00:45:16;;;;;;;3.37;2.00;;;;;;;15.63;nan;96986.72;3505439;40;20798;-70
2021/06/05 00:47:44;;;;;;;3.20;2.00;;;;;;;15.70;nan;96980.91;3504567;40;20432;-70
2021/06/05 00:50:13;;;;;;;3.67;2.00;;;;;;;15.39;nan;96983.50;3505053;40;20945;-71
2021/06/05 00:52:44;;;;;;;3.90;2.00;;;;;;;15.21;nan;96981.38;3506002;40;20439;-70
2021/06/05 00:55:14;;;;;;;5.13;2.33;;;;;;;15.37;nan;96986.25;3505812;40;20808;-70
2021/06/05 00:57:42;;;;;;;3.13;1.73;;;;;;;15.13;nan;96994.38;3506143;40;20447;-70
2021/06/05 01:00:16;;;;;;;4.90;1.97;;;;;;;14.92;nan;96996.94;3505388;40;20490;-71
2021/06/05 01:02:44;;;;;;;11.40;2.10;;;;;;;15.04;nan;96997.75;3495115;40;20753;-71
2021/06/05 01:05:12;;;;;;;9.80;2.13;;;;;;;14.84;nan;96991.44;3505669;40;20553;-71
2021/06/05 01:07:40;;;;;;;2.70;2.17;;;;;;;14.71;nan;96999.47;3507200;40;20424;-70
2021/06/05 01:10:16;;;;;;;2.77;1.93;;;;;;;14.73;nan;96999.34;3506856;40;21116;-69
2021/06/05 01:12:48;;;;;;;6.70;2.67;;;;;;;14.52;nan;96978.94;3505015;40;21222;-71
2021/06/05 01:15:21;;;;;;;8.60;1.80;;;;;;;14.62;nan;97006.31;3506260;40;20473;-70
2021/06/05 01:17:53;;;;;;;7.37;2.30;;;;;;;14.63;nan;97001.88;3506020;40;20482;-69
2021/06/05 01:20:35;;;;;;;2.50;1.53;;;;;;;14.55;nan;96996.34;3506178;40;20851;-69
2021/06/05 01:23:19;;;;;;;3.00;1.70;;;;;;;14.53;nan;96991.19;3508036;40;20630;-71
2021/06/05 01:26:08;;;;;;;4.27;2.00;;;;;;;14.59;nan;97000.44;3506421;40;20480;-69
2021/06/05 01:28:39;;;;;;;2.47;1.60;;;;;;;14.65;nan;96999.13;3499843;40;259970;-72
2021/06/05 01:31:12;;;;;;;4.30;1.60;;;;;;;14.63;nan;96996.59;3507642;40;20529;-71
2021/06/05 01:33:41;;;;;;;5.03;1.70;;;;;;;14.68;nan;96994.44;3507276;40;20492;-71
2021/06/05 01:36:11;;;;;;;4.37;1.50;;;;;;;14.76;nan;96994.69;3507294;40;20444;-70
2021/06/05 01:38:41;;;;;;;3.00;1.73;;;;;;;14.79;nan;96991.78;3507087;40;20474;-70
2021/06/05 01:41:11;;;;;;;5.30;1.47;;;;;;;14.82;nan;96996.81;3506935;40;20833;-69
2021/06/05 01:43:40;;;;;;;1.87;1.20;;;;;;;14.87;nan;96988.53;3507090;40;20577;-70
2021/06/05 01:46:09;;;;;;;7.90;1.47;;;;;;;14.78;nan;96963.75;3508023;40;20851;-72
2021/06/05 01:48:36;;;;;;;10.63;1.43;;;;;;;14.95;nan;96996.66;3506527;40;20735;-71
2021/06/05 01:51:09;;;;;;;10.33;1.57;;;;;;;14.91;nan;96976.78;3506835;40;20463;-71
2021/06/05 01:53:40;;;;;;;3.67;1.60;;;;;;;14.99;nan;96992.84;3506096;40;20779;-71
2021/06/05 01:56:15;;;;;;;6.23;2.07;;;;;;;14.94;nan;96997.63;3506627;40;20776;-71
2021/06/05 01:58:44;;;;;;;4.87;1.70;;;;;;;14.96;nan;96989.59;3507015;40;20482;-72
2021/06/05 02:01:12;;;;;;;4.53;1.30;;;;;;;15.03;nan;96998.69;3498261;40;20468;-71
2021/06/05 02:03:40;;;;;;;7.40;1.13;;;;;;;14.99;nan;96989.34;3506978;40;20888;-71
2021/06/05 02:06:08;;;;;;;3.20;1.13;;;;;;;15.03;nan;96989.00;3507434;40;20946;-70
2021/06/05 02:08:36;;;;;;;4.80;1.20;;;;;;;15.07;nan;96989.56;3507215;40;20762;-71
2021/06/05 02:11:06;;;;;;;6.73;1.47;;;;;;;15.10;nan;96991.13;3507180;40;20440;-72
2021/06/05 02:13:42;;;;;;;6.30;1.60;;;;;;;15.07;nan;96979.00;3506652;40;20798;-71
2021/06/05 02:16:15;;;;;;;7.03;1.90;;;;;;;15.15;nan;96983.66;3506373;40;20817;-70
2021/06/05 02:18:48;;;;;;;4.50;1.60;;;;;;;15.06;nan;96979.16;3506354;40;20514;-71
2021/06/05 02:21:18;;;;;;;3.43;1.47;;;;;;;15.14;nan;96980.19;3507528;40;20753;-71
2021/06/05 02:23:50;;;;;;;3.90;1.20;;;;;;;15.16;nan;96966.91;3506909;40;20590;-69
2021/06/05 02:26:19;;;;;;;1.90;1.07;;;;;;;15.15;nan;96970.47;3507148;40;20446;-72
2021/06/05 02:28:51;;;;;;;5.33;1.23;;;;;;;15.12;nan;96963.66;3505688;40;20455;-73
2021/06/05 02:31:20;;;;;;;2.13;1.13;;;;;;;15.21;nan;96965.56;3507561;40;20432;-72
2021/06/05 02:33:49;;;;;;;2.27;1.20;;;;;;;15.28;nan;96959.78;3506948;40;20718;-72
2021/06/05 02:36:17;;;;;;;8.60;1.13;;;;;;;15.21;nan;96955.00;3506852;40;20662;-72
2021/06/05 02:38:49;;;;;;;1.40;1.20;;;;;;;15.12;nan;96950.47;3505494;40;20475;-73
2021/06/05 02:41:20;;;;;;;3.43;1.00;;;;;;;15.21;nan;96948.88;3506541;40;20764;-73
2021/06/05 02:43:53;;;;;;;3.73;1.27;;;;;;;15.20;nan;96947.22;3505939;40;20713;-73
2021/06/05 02:46:24;;;;;;;1.20;1.00;;;;;;;15.18;nan;96954.41;3507029;40;20435;-73
2021/06/05 02:48:55;;;;;;;6.60;1.20;;;;;;;15.05;nan;96940.53;3505256;40;20502;-72
2021/06/05 02:51:25;;;;;;;4.83;1.30;;;;;;;15.09;nan;96942.78;3507328;40;20462;-70
2021/06/05 02:53:53;;;;;;;2.40;1.10;;;;;;;15.00;nan;96946.22;3506329;40;20574;-72
2021/06/05 02:56:21;;;;;;;5.73;1.50;;;;;;;14.90;nan;96940.84;3504797;40;20459;-71
2021/06/05 02:58:51;;;;;;;2.30;1.20;;;;;;;14.96;nan;96942.16;3506784;40;20852;-72
2021/06/05 03:01:19;;;;;;;2.47;1.20;;;;;;;14.92;nan;96946.00;3507729;40;20545;-73
2021/06/05 03:03:47;;;;;;;2.33;1.43;;;;;;;14.74;nan;96950.91;3504747;40;20824;-71
2021/06/05 03:06:15;;;;;;;2.20;1.23;;;;;;;14.67;nan;96950.59;3507650;40;21109;-72
2021/06/05 03:08:44;;;;;;;2.17;1.23;;;;;;;14.68;nan;96943.50;3506195;40;20501;-73
2021/06/05 03:11:15;;;;;;;1.70;1.10;;;;;;;14.76;nan;96946.38;3507843;40;20812;-71
2021/06/05 03:13:43;;;;;;;2.90;0.93;;;;;;;14.76;nan;96944.59;3505947;40;20973;-72
2021/06/05 03:16:13;;;;;;;7.70;1.07;;;;;;;14.77;nan;96938.34;3505886;40;20530;-71
2021/06/05 03:18:41;;;;;;;3.43;1.20;;;;;;;14.83;nan;96940.47;3506580;40;20459;-73
2021/06/05 03:21:15;;;;;;;2.90;1.20;;;;;;;14.82;nan;96938.81;3508794;40;20507;-71
2021/06/05 03:23:44;;;;;;;1.30;1.13;;;;;;;14.79;nan;96952.22;3506982;40;20549;-72
2021/06/05 03:26:13;;;;;;;10.10;1.40;;;;;;;14.82;nan;96954.63;3506672;40;20455;-71
2021/06/05 03:28:41;;;;;;;3.63;1.30;;;;;;;14.89;nan;96944.41;3505733;40;20855;-72
2021/06/05 03:31:12;;;;;;;1.23;1.07;;;;;;;14.96;nan;96950.88;3507675;40;20831;-72
2021/06/05 03:33:40;;;;;;;2.43;1.03;;;;;;;14.83;nan;96951.03;3506783;40;20485;-71
2021/06/05 03:36:08;;;;;;;4.23;1.07;;;;;;;14.61;nan;96954.53;3508135;40;20443;-72
2021/06/05 03:38:38;;;;;;;2.60;1.20;;;;;;;14.54;nan;96931.41;3507489;40;20867;-71
2021/06/05 03:41:05;;;;;;;2.50;1.33;;;;;;;14.48;nan;96945.91;3507074;40;20758;-70
2021/06/05 03:43:33;;;;;;;3.73;1.30;;;;;;;14.51;nan;96936.94;3506178;40;20824;-73
2021/06/05 03:46:00;;;;;;;3.93;1.20;;;;;;;14.51;nan;96936.94;3506781;40;20534;-72
2021/06/05 03:48:30;;;;;;;3.10;1.50;;;;;;;14.52;nan;96935.97;3506767;40;20444;-73
2021/06/05 03:50:57;;;;;;;2.13;1.50;;;;;;;14.46;nan;96933.81;3507200;40;20523;-72
2021/06/05 03:53:25;;;;;;;2.33;1.60;;;;;;;14.48;nan;96932.72;3506411;40;20457;-70
2021/06/05 03:55:54;;;;;;;2.50;1.37;;;;;;;14.46;nan;96939.91;3506763;40;20538;-71
2021/06/05 03:58:27;;;;;;;3.97;1.30;;;;;;;14.40;nan;96938.59;3506249;40;20466;-73
2021/06/05 04:00:56;;;;;;;3.20;1.30;;;;;;;14.37;nan;96933.59;3504424;40;20704;-72
2021/06/05 04:03:24;;;;;;;4.07;1.20;;;;;;;14.38;nan;96937.88;3505873;40;20451;-72
2021/06/05 04:05:53;;;;;;;2.37;1.27;;;;;;;14.32;nan;96933.09;3506644;40;20435;-73
2021/06/05 04:08:21;;;;;;;1.93;1.13;;;;;;;14.26;nan;96933.59;3504220;40;20939;-70
2021/06/05 04:10:48;;;;;;;3.13;1.77;;;;;;;14.24;nan;96933.69;3506315;40;20600;-71
2021/06/05 04:13:16;;;;;;;4.63;1.53;;;;;;;14.10;nan;96931.31;3506854;40;20855;-72
2021/06/05 04:15:44;;;;;;;3.20;1.57;;;;;;;14.03;nan;96906.41;3506949;40;20535;-72
2021/06/05 04:18:13;;;;;;;3.93;1.43;;;;;;;14.17;nan;96937.78;3506297;40;20526;-70
2021/06/05 04:20:43;;;;;;;2.63;1.33;;;;;;;14.24;nan;96938.97;3507273;40;20451;-71
2021/06/05 04:23:13;;;;;;;3.00;1.60;;;;;;;14.29;nan;96941.25;3507183;40;20756;-69
2021/06/05 04:25:41;;;;;;;4.40;1.50;;;;;;;14.25;nan;96939.81;3508296;40;21290;-69
2021/06/05 04:28:12;;;;;;;3.73;1.70;;;;;;;14.23;nan;96936.47;3508742;40;20471;-70
2021/06/05 04:30:50;;;;;;;2.27;1.40;;;;;;;14.26;nan;96940.66;3513530;40;20733;-71
2021/06/05 04:33:21;;;;;;;2.07;1.23;;;;;;;14.33;nan;96940.06;3510099;40;20501;-72
2021/06/05 04:35:48;;;;;;;1.93;1.30;;;;;;;14.35;nan;96932.03;3506706;40;20534;-69
2021/06/05 04:38:18;;;;;;;1.93;1.40;;;;;;;14.41;nan;96934.19;3506305;40;20789;-69
2021/06/05 04:40:46;;;;;;;2.47;1.47;;;;;;;14.56;nan;96940.91;3505172;40;20550;-70
2021/06/05 04:43:15;;;;;;;4.37;1.57;;;;;;;14.63;nan;96943.88;3506715;40;20853;-72
2021/06/05 04:45:42;;;;;;;2.37;1.33;;;;;;;14.52;nan;96931.50;3507167;40;20542;-72
2021/06/05 04:48:10;;;;;;;3.67;1.60;;;;;;;14.64;nan;96940.28;3506408;40;20439;-69
2021/06/05 04:50:40;;;;;;;6.40;1.50;;;;;;;14.74;nan;96937.75;3505723;40;20961;-70
2021/06/05 04:53:07;;;;;;;3.23;1.73;;;;;;;14.82;nan;96938.81;3505614;40;20777;-71
2021/06/05 04:55:37;;;;;;;2.87;1.30;;;;;;;15.02;nan;96941.63;3506637;40;20458;-70
2021/06/05 04:58:06;;;;;;;6.40;1.73;;;;;;;15.15;nan;96941.47;3505450;40;20926;-69
2021/06/05 05:00:35;;;;;;;2.30;1.40;;;;;;;15.35;nan;96940.69;3506886;40;21127;-72
2021/06/05 05:03:04;;;;;;;16.60;1.93;;;;;;;15.40;nan;96948.19;3506696;40;20467;-72
2021/06/05 05:05:32;;;;;;;4.23;1.90;;;;;;;15.27;nan;96951.03;3508234;40;20463;-69
2021/06/05 05:08:00;;;;;;;1.67;1.30;;;;;;;15.15;nan;96958.16;3506562;40;20559;-71
2021/06/05 05:10:30;;;;;;;1.90;1.23;;;;;;;15.37;nan;96954.56;3506283;40;20701;-70
2021/06/05 05:13:00;;;;;;;2.37;1.27;;;;;;;15.72;nan;96953.44;3504711;40;20678;-70
2021/06/05 05:15:28;;;;;;;2.60;1.60;;;;;;;15.99;nan;96958.25;3505628;40;20459;-72
2021/06/05 05:17:56;;;;;;;3.97;1.60;;;;;;;15.93;nan;96950.81;3506282;40;20464;-69
2021/06/05 05:20:27;;;;;;;2.13;1.40;;;;;;;16.05;nan;96956.03;3504749;40;20550;-72
2021/06/05 05:22:55;;;;;;;4.60;1.73;;;;;;;15.96;nan;96963.78;3507297;40;20831;-70
2021/06/05 05:25:22;;;;;;;2.97;1.50;;;;;;;15.98;nan;96961.84;3505874;40;20455;-69
2021/06/05 05:27:50;;;;;;;2.90;1.43;;;;;;;16.09;nan;96960.94;3506439;40;20474;-70
2021/06/05 05:30:24;;;;;;;2.60;1.93;;;;;;;16.18;nan;96960.13;3505578;40;20934;-70
2021/06/05 05:32:52;;;;;;;9.20;1.60;;;;;;;16.44;nan;96958.84;3505592;40;20542;-73
2021/06/05 05:35:20;;;;;;;2.50;1.60;;;;;;;16.72;nan;96968.69;3506413;40;20774;-70
2021/06/05 05:37:47;;;;;;;2.03;1.50;;;;;;;16.75;nan;96967.56;3506042;40;20670;-70
2021/06/05 05:40:16;;;;;;;4.60;1.47;;;;;;;16.76;nan;96970.09;3505797;40;20471;-70
2021/06/05 05:42:43;;;;;;;3.93;1.60;;;;;;;16.48;nan;96958.44;3506784;40;20439;-70
2021/06/05 05:45:12;;;;;;;5.23;1.80;;;;;;;16.47;nan;96958.59;3505481;40;20471;-69
2021/06/05 05:47:41;;;;;;;2.77;1.47;;;;;;;16.46;nan;96976.25;3506658;40;20494;-69
2021/06/05 05:50:11;;;;;;;2.60;1.47;;;;;;;16.55;nan;96974.63;3505813;40;20467;-69
2021/06/05 05:52:39;;;;;;;3.60;1.47;;;;;;;16.83;nan;96980.16;3506359;40;20468;-69
2021/06/05 05:55:10;;;;;;;3.30;1.27;;;;;;;16.94;nan;96988.81;3507608;40;20856;-70
2021/06/05 05:57:37;;;;;;;1.90;1.50;;;;;;;17.17;nan;96981.50;3508110;40;20447;-70
2021/06/05 06:00:09;;;;;;;9.90;1.77;;;;;;;17.37;nan;96985.00;3507467;40;20860;-72
2021/06/05 06:02:36;;;;;;;2.27;1.37;;;;;;;17.50;nan;96986.50;3507974;40;20446;-72
2021/06/05 06:05:07;;;;;;;2.77;1.53;;;;;;;17.42;nan;96981.09;3507626;40;21089;-72
2021/06/05 06:07:34;;;;;;;5.00;1.37;;;;;;;17.62;nan;96977.47;3508200;40;20440;-72
2021/06/05 06:10:03;;;;;;;3.30;1.60;;;;;;;17.50;nan;96992.63;3507678;40;20478;-70
2021/06/05 06:12:31;;;;;;;5.50;1.23;;;;;;;17.51;nan;96991.69;3509807;40;20579;-71
2021/06/05 06:14:58;;;;;;;2.63;1.20;;;;;;;17.62;nan;96984.56;3507654;40;20501;-71
2021/06/05 06:17:26;;;;;;;2.67;1.37;;;;;;;17.85;nan;96993.91;3507813;40;20448;-72
2021/06/05 06:19:54;;;;;;;5.93;1.67;;;;;;;18.16;nan;96988.44;3507332;40;20534;-71
2021/06/05 06:22:22;;;;;;;3.17;1.40;;;;;;;18.37;nan;96991.72;3506747;40;20839;-69
2021/06/05 06:24:50;;;;;;;4.17;1.37;;;;;;;18.13;nan;97001.94;3507424;40;20858;-71
2021/06/05 06:27:17;;;;;;;1.60;1.50;;;;;;;18.15;nan;97003.50;3510484;40;20451;-69
2021/06/05 06:29:45;;;;;;;3.47;1.60;;;;;;;18.36;nan;97002.44;3507725;40;20755;-70
2021/06/05 06:32:12;;;;;;;4.70;1.67;;;;;;;18.25;nan;97006.13;3507315;40;21299;-72
2021/06/05 06:34:39;;;;;;;3.33;1.23;;;;;;;19.10;nan;97001.59;3507426;40;20467;-70
2021/06/05 06:37:07;;;;;;;3.10;1.40;;;;;;;19.44;nan;97006.25;3507897;40;20459;-70
2021/06/05 06:39:36;;;;;;;2.43;1.67;;;;;;;19.96;nan;97002.94;3506990;40;20780;-70
2021/06/05 06:42:04;;;;;;;2.50;1.50;;;;;;;20.26;nan;96998.13;3507598;40;20854;-71
2021/06/05 06:44:32;;;;;;;9.10;1.50;;;;;;;20.17;nan;96999.94;3507389;40;20848;-72
2021/06/05 06:46:59;;;;;;;2.20;1.20;;;;;;;19.91;nan;97000.72;3508211;40;20436;-72
2021/06/05 06:49:27;;;;;;;2.90;1.40;;;;;;;19.97;nan;97001.09;3507136;40;20461;-76
2021/06/05 06:51:54;;;;;;;2.80;1.20;;;;;;;19.88;nan;97000.22;3508038;40;20490;-72
2021/06/05 06:54:22;;;;;;;1.70;1.33;;;;;;;19.95;nan;97006.56;3505435;40;20500;-72
2021/06/05 06:56:51;;;;;;;2.60;1.20;;;;;;;19.98;nan;97005.44;3507667;40;20796;-72
2021/06/05 06:59:19;;;;;;;3.63;1.50;;;;;;;20.24;nan;97006.28;3506820;40;20467;-72
2021/06/05 07:01:47;;;;;;;3.03;1.10;;;;;;;19.69;nan;97006.50;3507083;40;20497;-73
2021/06/05 07:04:14;;;;;;;2.37;1.30;;;;;;;20.07;nan;96996.50;3507790;40;21101;-72
2021/06/05 07:06:42;;;;;;;2.03;1.10;;;;;;;20.29;nan;97000.50;3507358;40;20837;-72
2021/06/05 07:09:11;;;;;;;3.40;1.23;;;;;;;20.02;nan;96999.66;3507812;40;20941;-73
2021/06/05 07:11:38;;;;;;;3.40;1.40;;;;;;;20.13;nan;97002.06;3506590;40;20443;-73
2021/06/05 07:14:07;;;;;;;1.93;1.23;;;;;;;20.02;nan;97006.78;3507792;40;20542;-71
2021/06/05 07:16:38;;;;;;;2.13;1.00;;;;;;;20.13;nan;97001.19;3506165;40;20479;-71
2021/06/05 07:19:07;;;;;;;1.87;1.13;;;;;;;20.66;nan;96994.91;3506526;40;20745;-72
2021/06/05 07:21:36;;;;;;;1.60;1.40;;;;;;;21.09;nan;96989.56;3498326;40;20758;-73
2021/06/05 07:24:04;;;;;;;2.60;1.40;;;;;;;21.45;nan;96995.53;3507590;40;20554;-74
2021/06/05 07:26:33;;;;;;;2.17;0.90;;;;;;;21.19;nan;97006.25;3506046;40;20455;-72
2021/06/05 07:29:03;;;;;;;1.20;0.80;;;;;;;20.85;nan;97011.63;3506576;40;20447;-73
2021/06/05 07:31:34;;;;;;;2.90;1.00;;;;;;;21.00;nan;97009.19;3506232;40;20566;-71
2021/06/05 07:34:02;;;;;;;3.63;0.97;;;;;;;20.84;nan;97002.81;3507003;40;20576;-72
2021/06/05 07:36:34;;;;;;;1.53;0.93;;;;;;;20.47;nan;97011.06;3507121;40;20448;-71
2021/06/05 07:39:01;;;;;;;14.63;1.10;;;;;;;20.69;nan;97015.88;3505472;40;20822;-72
2021/06/05 07:41:29;;;;;;;9.93;1.10;;;;;;;20.25;nan;97021.25;3507792;40;20510;-70
2021/06/05 07:43:56;;;;;;;7.20;1.17;;;;;;;20.11;nan;97019.13;3507321;40;20851;-70
2021/06/05 07:46:24;;;;;;;13.20;1.00;;;;;;;19.91;nan;97023.81;3507212;40;20435;-71
2021/06/05 07:48:54;;;;;;;6.30;0.90;;;;;;;19.26;nan;97019.50;3510237;40;20474;-70
2021/06/05 07:51:23;;;;;;;6.37;0.93;;;;;;;18.94;nan;97018.16;3510073;40;20442;-70
2021/06/05 07:53:50;;;;;;;1.10;0.80;;;;;;;18.82;nan;97026.44;3506992;40;20877;-70
2021/06/05 07:56:18;;;;;;;5.57;0.90;;;;;;;18.61;nan;97022.19;3507556;40;20447;-69
2021/06/05 07:58:46;;;;;;;2.47;0.87;;;;;;;18.60;nan;97025.81;3506788;40;20483;-70
2021/06/05 08:01:13;;;;;;;6.60;1.00;;;;;;;18.60;nan;97028.47;3506736;40;20755;-70
2021/06/05 08:03:41;;;;;;;4.40;1.23;;;;;;;18.53;nan;97033.53;3506228;40;20581;-70
2021/06/05 08:06:10;;;;;;;2.77;2.30;;;;;;;18.47;nan;97036.75;3507859;40;20439;-71
2021/06/05 08:08:38;;;;;;;8.67;4.60;;;;;;;18.44;nan;97038.84;3506758;40;20912;-72
2021/06/05 08:11:05;;;;;;;1.10;0.77;;;;;;;18.22;nan;97040.03;3506522;40;20840;-71
2021/06/05 08:13:33;;;;;;;2.17;0.90;;;;;;;18.39;nan;97041.94;3506745;40;20852;-71
2021/06/05 08:16:00;;;;;;;6.23;1.10;;;;;;;18.42;nan;97036.34;3507659;40;20915;-69
2021/06/05 08:18:28;;;;;;;1.70;0.90;;;;;;;18.55;nan;97034.22;3507538;40;20550;-70
2021/06/05 08:20:58;;;;;;;3.43;0.80;;;;;;;18.51;nan;97038.13;3509173;40;20803;-70
2021/06/05 08:23:30;;;;;;;1.20;0.70;;;;;;;18.51;nan;97037.31;3507348;40;20549;-70
2021/06/05 08:25:59;;;;;;;2.17;0.80;;;;;;;18.49;nan;97033.97;3507150;40;20756;-71
2021/06/05 08:28:27;;;;;;;3.10;0.80;;;;;;;18.67;nan;97037.53;3508253;40;20705;-70
2021/06/05 08:30:57;;;;;;;1.87;1.00;;;;;;;18.61;nan;97043.41;3508424;40;20914;-68
2021/06/05 08:33:25;;;;;;;1.70;1.00;;;;;;;18.69;nan;97042.69;3505765;40;21098;-69
2021/06/05 08:35:53;;;;;;;8.20;0.80;;;;;;;18.85;nan;97047.41;3507390;40;20534;-69
2021/06/05 08:38:23;;;;;;;1.53;0.80;;;;;;;18.94;nan;97041.22;3504996;40;20768;-70
2021/06/05 08:41:00;;;;;;;2.63;0.80;;;;;;;18.94;nan;97044.69;3506156;40;20843;-72
2021/06/05 08:43:34;;;;;;;1.00;0.73;;;;;;;18.63;nan;97046.75;3503109;40;20463;-69
2021/06/05 08:46:05;;;;;;;5.17;1.07;;;;;;;18.54;nan;97050.25;3506539;40;20673;-68
2021/06/05 08:48:32;;;;;;;1.80;0.80;;;;;;;18.65;nan;97043.97;3507085;40;20663;-69
2021/06/05 08:51:10;;;;;;;4.90;0.90;;;;;;;18.89;nan;97048.78;3506010;40;20816;-68
2021/06/05 08:53:39;;;;;;;3.93;0.70;;;;;;;18.84;nan;97045.75;3510301;40;20550;-69
2021/06/05 08:56:14;;;;;;;1.93;0.83;;;;;;;18.91;nan;97044.16;3506686;40;21069;-68
2021/06/05 08:58:45;;;;;;;2.50;0.83;;;;;;;18.90;nan;97047.81;3506769;40;20855;-70
2021/06/05 09:01:17;;;;;;;1.57;0.90;;;;;;;18.93;nan;97044.84;3507140;40;20457;-70
2021/06/05 09:03:49;;;;;;;1.37;0.73;;;;;;;19.10;nan;97052.03;3506514;40;20910;-68
2021/06/05 09:06:19;;;;;;;6.80;0.90;;;;;;;19.12;nan;97044.75;3506736;40;20981;-69
2021/06/05 09:08:47;;;;;;;1.60;0.87;;;;;;;19.22;nan;97046.53;3505371;40;20448;-69
2021/06/05 09:11:18;;;;;;;10.60;4.63;;;;;;;19.47;nan;97050.28;3505850;40;20561;-70
2021/06/05 09:13:46;;;;;;;4.50;3.03;;;;;;;19.46;nan;97049.41;3505385;40;20769;-70
2021/06/05 09:16:35;;;;;;;4.37;1.10;;;;;;;19.46;nan;97045.94;3507248;40;20444;-69
2021/06/05 09:19:16;;;;;;;2.80;1.03;;;;;;;19.43;nan;97049.75;3505803;40;20904;-68
2021/06/05 09:21:48;;;;;;;12.43;1.13;;;;;;;19.75;nan;97046.59;3506396;40;20467;-68
2021/06/05 09:24:20;;;;;;;5.27;1.33;;;;;;;19.89;nan;97055.84;3504828;40;20471;-69
2021/06/05 09:27:03;;;;;;;1.40;0.80;;;;;;;20.33;nan;97047.06;3505049;40;20504;-68
2021/06/05 09:29:32;;;;;;;3.30;0.80;;;;;;;20.74;nan;97045.50;3508452;40;20537;-71
2021/06/05 09:32:02;;;;;;;1.40;0.83;;;;;;;20.79;nan;97052.19;3510905;40;20537;-69
2021/06/05 09:34:32;;;;;;;1.10;0.93;;;;;;;20.90;nan;97049.25;3514351;40;20856;-70
2021/06/05 09:37:01;;;;;;;2.00;0.90;;;;;;;21.10;nan;97055.97;3508883;40;20460;-70
2021/06/05 09:39:42;;;;;;;2.93;1.20;;;;;;;20.61;nan;97045.09;3507978;40;20895;-71
2021/06/05 09:42:14;;;;;;;6.20;1.00;;;;;;;20.31;nan;97049.88;3508070;40;20435;-69
2021/06/05 09:44:47;;;;;;;1.43;0.90;;;;;;;20.48;nan;97052.63;3507575;40;20503;-69
2021/06/05 09:47:24;;;;;;;1.07;0.90;;;;;;;20.67;nan;97044.47;3508455;40;20537;-70
2021/06/05 09:49:58;;;;;;;3.37;1.23;;;;;;;20.30;nan;97053.50;3506750;40;20498;-69
2021/06/05 09:52:33;;;;;;;1.83;1.03;;;;;;;20.61;nan;97050.41;3511308;40;20752;-70
2021/06/05 09:55:26;;;;;;;3.57;1.10;;;;;;;20.43;nan;97052.28;3506078;40;20858;-69
2021/06/05 09:57:58;;;;;;;7.97;1.67;;;;;;;20.53;nan;97050.34;3507645;40;20824;-69
2021/06/05 10:00:30;;;;;;;9.00;1.47;;;;;;;20.54;nan;97055.50;3507833;40;20529;-69
2021/06/05 10:03:18;;;;;;;7.70;1.37;;;;;;;19.94;nan;97058.88;3508896;40;20538;-70
2021/06/05 10:05:47;;;;;;;7.00;1.17;;;;;;;19.65;nan;97051.13;3505946;40;20860;-69
2021/06/05 10:08:22;;;;;;;4.63;1.60;;;;;;;19.41;nan;97032.28;3508599;40;20817;-69
2021/06/05 10:10:52;;;;;;;4.93;1.47;;;;;;;19.47;nan;97047.63;3507554;40;20853;-70
2021/06/05 10:13:26;;;;;;;2.57;1.03;;;;;;;19.22;nan;97046.53;3507116;40;20447;-69
2021/06/05 10:15:56;;;;;;;5.80;2.90;;;;;;;18.85;nan;97042.91;3506462;40;21086;-70
2021/06/05 10:18:28;;;;;;;2.80;1.27;;;;;;;18.95;nan;97056.13;3506940;40;20907;-69
2021/06/05 10:21:01;;;;;;;2.57;1.67;;;;;;;18.61;nan;97058.50;3506707;40;20455;-68
2021/06/05 10:23:32;;;;;;;2.33;1.33;;;;;;;18.67;nan;97058.75;3497269;40;20710;-70
2021/06/05 10:26:03;;;;;;;1.90;1.43;;;;;;;18.45;nan;97059.09;3507180;40;20553;-70
2021/06/05 10:28:35;;;;;;;4.80;1.70;;;;;;;18.48;nan;97064.09;3506794;40;20490;-67
2021/06/05 10:31:07;;;;;;;8.80;2.00;;;;;;;18.64;nan;97045.78;3506790;40;20451;-67
2021/06/05 10:33:41;;;;;;;9.00;1.80;;;;;;;18.65;nan;97049.25;3507242;40;20852;-70
2021/06/05 10:36:17;;;;;;;2.60;1.73;;;;;;;18.84;nan;97053.69;3497963;40;20694;-70
2021/06/05 10:38:53;;;;;;;3.60;2.10;;;;;;;18.85;nan;97058.00;3510505;40;21156;-69
2021/06/05 10:41:24;;;;;;;2.57;1.80;;;;;;;18.70;nan;97052.28;3507178;40;20451;-68
2021/06/05 10:43:54;;;;;;;2.30;1.33;;;;;;;18.77;nan;97048.91;3506626;40;20926;-68
2021/06/05 10:46:31;;;;;;;4.87;1.60;;;;;;;18.84;nan;97051.88;3507040;40;20476;-72
2021/06/05 10:49:08;;;;;;;1.57;1.20;;;;;;;18.96;nan;97039.25;3506521;40;20455;-69
2021/06/05 10:51:39;;;;;;;8.53;1.77;;;;;;;18.96;nan;97047.22;3506749;40;20817;-68
2021/06/05 10:54:10;;;;;;;3.53;1.53;;;;;;;18.99;nan;97041.59;3506555;40;20801;-68
2021/06/05 10:56:41;;;;;;;5.73;2.07;;;;;;;19.18;nan;97035.34;3507458;40;20452;-69
2021/06/05 10:59:42;;;;;;;3.00;1.40;;;;;;;19.03;nan;97042.13;3506759;40;20566;-70
2021/06/05 11:02:34;;;;;;;2.77;1.87;;;;;;;19.63;nan;97038.97;3508641;40;20915;-70
2021/06/05 11:05:02;;;;;;;8.43;5.23;;;;;;;19.77;nan;97042.94;3506572;40;20479;-72
2021/06/05 11:07:34;;;;;;;2.33;1.47;;;;;;;19.68;nan;97034.03;3507066;40;20534;-69
2021/06/05 11:10:06;;;;;;;28.53;16.13;;;;;;;19.42;nan;97037.44;3505076;40;20960;-70
2021/06/05 11:12:49;;;;;;;5.93;1.80;;;;;;;19.98;nan;97040.81;3506579;40;21140;-68
2021/06/05 11:15:51;;;;;;;1.60;1.30;;;;;;;20.03;nan;97032.38;3506361;40;20599;-69
2021/06/05 11:18:42;;;;;;;3.40;1.30;;;;;;;20.57;nan;97022.44;3506785;40;20685;-69
2021/06/05 11:21:39;;;;;;;6.00;1.80;;;;;;;21.01;nan;97024.16;3506358;40;20495;-69
2021/06/05 11:24:17;;;;;;;3.10;1.33;;;;;;;20.91;nan;97022.47;3505875;40;20910;-69
2021/06/05 11:26:47;;;;;;;5.93;1.27;;;;;;;21.10;nan;97025.88;3507976;40;20746;-71
2021/06/05 11:29:54;;;;;;;2.30;1.10;;;;;;;21.25;nan;97021.59;3506243;40;20467;-69
2021/06/05 11:32:52;;;;;;;2.20;1.33;;;;;;;21.09;nan;97010.88;3507108;40;20455;-70
2021/06/05 11:35:48;;;;;;;4.03;1.60;;;;;;;20.84;nan;97013.44;3506714;40;20461;-68
2021/06/05 11:38:50;;;;;;;3.70;1.50;;;;;;;21.21;nan;97009.59;3507133;40;20937;-68
2021/06/05 11:41:44;;;;;;;2.90;1.43;;;;;;;21.20;nan;97012.41;3475684;41;20522;-71
2021/06/05 11:44:35;;;;;;;4.20;1.57;;;;;;;20.80;nan;97009.44;3473932;41;20527;-69
2021/06/05 11:47:45;;;;;;;9.50;2.00;;;;;;;19.59;nan;97011.88;3474028;41;20842;-68
2021/06/05 11:50:34;;;;;;;1.87;1.60;;;;;;;19.83;nan;97013.94;3472422;41;20899;-69
2021/06/05 11:53:27;;;;;;;3.87;1.63;;;;;;;19.47;nan;97013.09;3475037;41;20755;-70
2021/06/05 11:55:57;;;;;;;2.33;1.70;;;;;;;19.07;nan;97007.22;3479375;41;20459;-69
2021/06/05 11:58:32;;;;;;;2.87;1.90;;;;;;;19.03;nan;97012.94;3475281;41;20698;-70
2021/06/05 12:01:13;;;;;;;4.07;2.00;;;;;;;18.98;nan;97012.56;3475560;41;20700;-70
2021/06/05 12:03:47;;;;;;;4.23;2.17;;;;;;;19.15;nan;97017.06;3475811;41;20929;-71
2021/06/05 12:06:20;;;;;;;5.63;2.90;;;;;;;19.54;nan;97015.00;3475288;41;20477;-69
2021/06/05 12:08:59;;;;;;;2.73;1.50;;;;;;;19.90;nan;97012.34;3466515;41;20509;-70